Pays
Station

 

Conditions  météo  pour  Kingston/Norman Manley  -  Jamaïque    Jamaïque

  
32 °C
    
 
 

METAR pour Kingston/Norman Manley :

MKJP 162000Z 14026KT 9999 FEW022 FEW024CB 32/25 Q1014

 

Voici le bulletin pour Kingston/Norman Manley - Jamaïque.
 
Le bulletin a été fait il y a un moment, à 20:00 UTC .
Le vent soufflait à la vitesse de 13.4 mètres par seconde de Sud-est (140°).
 
La température était de 32 °C, avec un point de rosée à 25 °C.
La température ressentie était de 40 °C.
 
La pression atmosphérique était de 1014 hPa.
L'humidité relative était de 66.6%.
 
Il y avait 1 à 2/8ème de nébulosité à une hauteur de 671 mètres et 1 à 2/8ème cumulonimbus de nébulosité à une hauteur de 732 mètres.
 
La visibilité globale était de supérieure à 10 kilomètres.
 

 
 
 

Pays :   A   B   C   D   E   F   G   H   I   J   K   L   M   N   O   P   Q   R   S   T   U   V   W   Y   Z

 

Partenaires :  Info Météo avec Met'info
Météo Marine avec MeteoMarine.net
Infos Site  |  Infos Légales  |  Crédits  |  Confidentialité
Contactez-nous  |  Ajouter aux favoris
© 2013-2018 METAR - Tous droits réservés